Time;durP1;ratioP1;P1;durP2;ratioP2;P2;SDS_P1;SDS_P2;PMS_P1;PMS_P2;Temp;Humidity;BMP_temperature;BMP_pressure;BME280_temperature;BME280_humidity;BME280_pressure;Samples;Min_cycle;Max_cycle;Signal;HPM_P1;HPM_P2
2022/12/20 00:01:21;;;;;;;1999.90;999.90;;;12.90;1.00;;;;;;5054837;28;20403;-69
2022/12/20 00:03:50;;;;;;;1999.90;999.90;;;12.90;1.00;;;;;;5054939;28;20398;-69
2022/12/20 00:06:16;;;;;;;1999.90;999.90;;;;;;;;;;5054717;28;20404;-69
2022/12/20 00:08:42;;;;;;;1999.90;999.90;;;;;;;;;;5054583;28;20460;-69
2022/12/20 00:11:08;;;;;;;1999.90;999.90;;;12.40;33.10;;;;;;5054827;28;20881;-69
2022/12/20 00:13:34;;;;;;;1999.90;999.90;;;;;;;;;;5054617;28;20914;-69
2022/12/20 00:16:10;;;;;;;1999.90;999.90;;;12.70;1.00;;;;;;5054782;28;20904;-69
2022/12/20 00:18:37;;;;;;;1999.90;999.90;;;12.30;2.70;;;;;;5054641;28;20463;-69
2022/12/20 00:21:04;;;;;;;1999.90;999.90;;;13.00;1.00;;;;;;5054699;28;20461;-69
2022/12/20 00:23:30;;;;;;;1999.90;999.90;;;12.70;99.90;;;;;;5054497;28;20439;-70
2022/12/20 00:26:05;;;;;;;1999.90;999.90;;;12.30;99.90;;;;;;5053581;28;20883;-69
2022/12/20 00:28:33;;;;;;;1999.90;999.90;;;12.70;1.00;;;;;;5054032;28;20226;-69
2022/12/20 00:30:58;;;;;;;1999.90;999.90;;;12.20;12.00;;;;;;5054273;28;20436;-69
2022/12/20 00:33:24;;;;;;;1999.90;999.90;;;12.20;1.00;;;;;;5054267;28;20540;-69
2022/12/20 00:35:50;;;;;;;1999.90;999.90;;;;;;;;;;5054174;28;20411;-69
2022/12/20 00:38:17;;;;;;;1999.90;999.90;;;12.20;82.20;;;;;;5053964;28;20868;-69
2022/12/20 00:40:43;;;;;;;1999.90;999.90;;;;;;;;;;5054160;28;20407;-69
2022/12/20 00:43:08;;;;;;;1999.90;999.90;;;11.90;99.90;;;;;;5054095;28;20192;-69
2022/12/20 00:45:34;;;;;;;1999.90;999.90;;;12.30;99.90;;;;;;5054179;28;20418;-69
2022/12/20 00:48:00;;;;;;;1999.90;999.90;;;;;;;;;;5053760;28;20267;-69
2022/12/20 00:50:26;;;;;;;1999.90;999.90;;;;;;;;;;5054015;28;20174;-69
2022/12/20 00:52:52;;;;;;;1999.90;999.90;;;;;;;;;;5053772;28;20537;-69
2022/12/20 00:55:18;;;;;;;1999.90;999.90;;;;;;;;;;5053858;28;20397;-69
2022/12/20 00:57:44;;;;;;;1999.90;999.90;;;;;;;;;;5053813;28;20406;-69
2022/12/20 01:00:10;;;;;;;1999.90;999.90;;;12.40;1.00;;;;;;5053819;28;20900;-69
2022/12/20 01:02:36;;;;;;;1999.90;999.90;;;;;;;;;;5053633;28;20449;-69
2022/12/20 01:05:02;;;;;;;1999.90;999.90;;;;;;;;;;5053714;28;20410;-69
2022/12/20 01:07:28;;;;;;;1999.90;999.90;;;;;;;;;;5053481;28;20403;-69
2022/12/20 01:09:54;;;;;;;1999.90;999.90;;;;;;;;;;5053403;28;20789;-69
2022/12/20 01:12:20;;;;;;;1999.90;999.90;;;;;;;;;;5053450;28;20465;-69
2022/12/20 01:14:46;;;;;;;1999.90;999.90;;;;;;;;;;5053576;28;20404;-69
2022/12/20 01:17:12;;;;;;;1999.90;999.90;;;12.70;1.00;;;;;;5053266;28;20406;-69
2022/12/20 01:19:38;;;;;;;1999.90;999.90;;;12.70;99.90;;;;;;5053406;28;20506;-69
2022/12/20 01:22:04;;;;;;;1999.90;999.90;;;13.10;1.00;;;;;;5053358;28;20191;-69
2022/12/20 01:24:30;;;;;;;1999.90;999.90;;;12.70;1.00;;;;;;5053300;28;20414;-69
2022/12/20 01:26:55;;;;;;;1999.90;999.90;;;12.80;1.00;;;;;;5053172;28;20255;-69
2022/12/20 01:29:21;;;;;;;1999.90;999.90;;;12.60;99.90;;;;;;5053267;28;20697;-70
2022/12/20 01:31:47;;;;;;;1999.90;999.90;;;;;;;;;;5053077;28;20216;-69
2022/12/20 01:34:13;;;;;;;1999.90;999.90;;;;;;;;;;5053192;28;20671;-70
2022/12/20 01:36:38;;;;;;;1999.90;999.90;;;12.10;15.60;;;;;;5053097;28;20432;-71
2022/12/20 01:39:10;;;;;;;1999.90;999.90;;;12.20;1.00;;;;;;5052618;28;20441;-70
2022/12/20 01:41:37;;;;;;;1999.90;999.90;;;12.10;54.80;;;;;;5053081;28;20187;-71
2022/12/20 01:44:17;;;;;;;1999.90;999.90;;;12.10;99.90;;;;;;5053032;28;20961;-70
2022/12/20 01:46:45;;;;;;;1999.90;999.90;;;11.80;99.90;;;;;;5052903;28;20896;-70
2022/12/20 01:49:17;;;;;;;1999.90;999.90;;;12.60;99.90;;;;;;5052757;28;20410;-70
2022/12/20 01:51:46;;;;;;;1999.90;999.90;;;11.50;99.90;;;;;;5052752;28;20453;-70
2022/12/20 01:54:28;;;;;;;1999.90;999.90;;;11.80;99.90;;;;;;5052736;28;20461;-70
2022/12/20 01:56:59;;;;;;;1999.90;999.90;;;11.90;99.90;;;;;;5052620;28;20863;-70
2022/12/20 01:59:26;;;;;;;1999.90;999.90;;;11.40;99.90;;;;;;5052690;28;20456;-70
2022/12/20 02:01:52;;;;;;;1999.90;999.90;;;11.90;1.00;;;;;;5052577;28;20430;-70
2022/12/20 02:04:18;;;;;;;1999.90;999.90;;;11.60;1.00;;;;;;5052543;28;20471;-70
2022/12/20 02:06:44;;;;;;;1999.90;999.90;;;;;;;;;;5052652;28;20437;-70
2022/12/20 02:09:09;;;;;;;1999.90;999.90;;;12.20;1.00;;;;;;5052270;28;20176;-70
2022/12/20 02:11:35;;;;;;;1999.90;999.90;;;11.70;1.00;;;;;;5052392;28;21226;-70
2022/12/20 02:14:42;;;;;;;1999.90;999.90;;;11.90;99.90;;;;;;5052421;28;20171;-70
2022/12/20 02:17:29;;;;;;;1999.90;999.90;;;11.90;99.90;;;;;;5052162;28;20175;-69
2022/12/20 02:20:19;;;;;;;1999.90;999.90;;;11.80;99.90;;;;;;5052336;28;20421;-71
2022/12/20 02:23:04;;;;;;;1999.90;999.90;;;11.70;1.00;;;;;;5052204;28;20504;-70
2022/12/20 02:25:48;;;;;;;1999.90;999.90;;;12.00;1.00;;;;;;5052308;28;20456;-70
2022/12/20 02:28:35;;;;;;;1999.90;999.90;;;11.80;99.90;;;;;;5052029;28;20772;-70
2022/12/20 02:31:07;;;;;;;1999.90;999.90;;;11.70;99.90;;;;;;5051994;28;20520;-71
2022/12/20 02:33:32;;;;;;;1999.90;999.90;;;12.10;99.90;;;;;;5052043;28;20470;-70
2022/12/20 02:35:58;;;;;;;1999.90;999.90;;;;;;;;;;5051976;28;20417;-69
2022/12/20 02:38:36;;;;;;;1999.90;999.90;;;11.70;1.00;;;;;;5051904;28;20168;-69
2022/12/20 02:41:02;;;;;;;1999.90;999.90;;;;;;;;;;5052079;28;20429;-70
2022/12/20 02:46:16;;;;;;;1999.90;999.90;;;11.90;1.00;;;;;;5052150;28;20844;-69
2022/12/20 02:48:43;;;;;;;1999.90;999.90;;;12.20;1.00;;;;;;5051608;28;20417;-70
2022/12/20 02:51:10;;;;;;;1999.90;999.90;;;11.80;1.00;;;;;;5051414;28;20420;-70
2022/12/20 02:53:37;;;;;;;1999.90;999.90;;;11.80;1.00;;;;;;5051716;28;20462;-70
2022/12/20 02:56:11;;;;;;;1999.90;999.90;;;12.40;1.00;;;;;;5051710;28;20460;-70
2022/12/20 02:58:53;;;;;;;1999.90;999.90;;;11.90;1.00;;;;;;5051695;28;20475;-69
2022/12/20 03:01:53;;;;;;;1999.90;999.90;;;11.90;1.00;;;;;;5051708;28;20413;-70
2022/12/20 03:04:22;;;;;;;1999.90;999.90;;;11.90;1.00;;;;;;5051138;28;20517;-70
2022/12/20 03:07:03;;;;;;;1999.90;999.90;;;12.00;1.00;;;;;;5051658;28;20410;-70
2022/12/20 03:09:31;;;;;;;1999.90;999.90;;;11.80;1.00;;;;;;5051662;28;20407;-70
2022/12/20 03:11:57;;;;;;;1999.90;999.90;;;;;;;;;;5052084;28;20549;-70
2022/12/20 03:14:23;;;;;;;1999.90;999.90;;;;;;;;;;5051639;28;20489;-70
2022/12/20 03:16:49;;;;;;;1999.90;999.90;;;;;;;;;;5051458;28;20405;-69
2022/12/20 03:19:16;;;;;;;1999.90;999.90;;;;;;;;;;5051386;28;20416;-70
2022/12/20 03:21:42;;;;;;;1999.90;999.90;;;;;;;;;;5051453;28;20912;-70
2022/12/20 03:24:09;;;;;;;1999.90;999.90;;;;;;;;;;5051674;28;20490;-70
2022/12/20 03:26:36;;;;;;;1999.90;999.90;;;;;;;;;;5051541;28;20402;-70
2022/12/20 03:29:02;;;;;;;1999.90;999.90;;;12.00;1.00;;;;;;5051372;28;20631;-69
2022/12/20 03:31:28;;;;;;;1999.90;999.90;;;;;;;;;;5051226;28;20426;-70
2022/12/20 03:33:54;;;;;;;1999.90;999.90;;;11.90;1.00;;;;;;5051495;28;20788;-70
2022/12/20 03:36:22;;;;;;;1999.90;999.90;;;;;;;;;;5051319;28;20441;-70
2022/12/20 03:38:52;;;;;;;1999.90;999.90;;;11.80;1.00;;;;;;5051333;28;20430;-70
2022/12/20 03:41:20;;;;;;;1999.90;999.90;;;12.00;1.00;;;;;;5051369;28;20493;-69
2022/12/20 03:43:46;;;;;;;1999.90;999.90;;;;;;;;;;5051347;28;20427;-70
2022/12/20 03:46:12;;;;;;;1999.90;999.90;;;;;;;;;;5051257;28;20773;-69
2022/12/20 03:48:38;;;;;;;1999.90;999.90;;;;;;;;;;5051142;28;20405;-70
2022/12/20 03:51:04;;;;;;;1999.90;999.90;;;;;;;;;;5051293;28;20409;-70
2022/12/20 03:53:30;;;;;;;1999.90;999.90;;;;;;;;;;5051170;28;20487;-70
2022/12/20 03:55:56;;;;;;;1999.90;999.90;;;11.90;1.00;;;;;;5051154;28;20414;-69
2022/12/20 03:58:22;;;;;;;1999.90;999.90;;;11.70;1.00;;;;;;5051069;28;20465;-69
2022/12/20 04:00:47;;;;;;;1999.90;999.90;;;11.80;1.00;;;;;;5052136;28;20222;-69
2022/12/20 04:03:13;;;;;;;1999.90;999.90;;;11.50;1.00;;;;;;5054760;28;20276;-69
2022/12/20 04:05:39;;;;;;;1999.90;999.90;;;11.30;1.00;;;;;;5054830;28;20180;-70
2022/12/20 04:08:05;;;;;;;1999.90;999.90;;;;;;;;;;5054597;28;20179;-71
2022/12/20 04:10:31;;;;;;;1999.90;999.90;;;;;;;;;;5054770;28;20266;-69
2022/12/20 04:12:56;;;;;;;1999.90;999.90;;;11.40;1.00;;;;;;5054571;28;20907;-69
2022/12/20 04:15:22;;;;;;;1999.90;999.90;;;11.50;1.00;;;;;;5054667;28;20425;-69
2022/12/20 04:17:47;;;;;;;1999.90;999.90;;;10.50;1.00;;;;;;5054443;28;20242;-70
2022/12/20 04:20:18;;;;;;;1999.90;999.90;;;11.50;1.00;;;;;;5054579;28;20625;-70
2022/12/20 04:22:45;;;;;;;1999.90;999.90;;;11.70;1.00;;;;;;5054535;28;20645;-69
2022/12/20 04:25:11;;;;;;;1999.90;999.90;;;;;;;;;;5054494;28;20420;-71
2022/12/20 04:27:37;;;;;;;1999.90;999.90;;;;;;;;;;5054193;28;20409;-69
2022/12/20 04:30:03;;;;;;;1999.90;999.90;;;11.60;1.00;;;;;;5054447;28;20497;-69
2022/12/20 04:32:28;;;;;;;1999.90;999.90;;;11.60;1.00;;;;;;5054142;28;20474;-69
2022/12/20 04:34:54;;;;;;;1999.90;999.90;;;12.20;1.00;;;;;;5054331;28;20841;-69
2022/12/20 04:37:20;;;;;;;1999.90;999.90;;;11.90;1.00;;;;;;5054104;28;20688;-69
2022/12/20 04:39:46;;;;;;;1999.90;999.90;;;;;;;;;;5054245;28;20522;-70
2022/12/20 04:42:12;;;;;;;1999.90;999.90;;;;;;;;;;5054112;28;20660;-70
2022/12/20 04:44:37;;;;;;;1999.90;999.90;;;;;;;;;;5054144;28;20494;-70
2022/12/20 04:47:03;;;;;;;1999.90;999.90;;;;;;;;;;5053898;28;20418;-70
2022/12/20 04:49:29;;;;;;;1999.90;999.90;;;11.50;1.00;;;;;;5053940;28;20469;-70
2022/12/20 04:53:46;;;;;;;1999.90;999.90;;;11.30;1.00;;;;;;5053954;28;20457;-69
2022/12/20 04:54:40;;;;;;;1999.90;999.90;;;11.00;1.00;;;;;;5053789;28;20273;-69
2022/12/20 04:57:08;;;;;;;1999.90;999.90;;;;;;;;;;5053594;28;20501;-69
2022/12/20 04:59:34;;;;;;;1999.90;999.90;;;11.80;1.00;;;;;;5053959;28;20210;-70
2022/12/20 05:02:00;;;;;;;1999.90;999.90;;;;;;;;;;5053904;28;20426;-70
2022/12/20 05:04:26;;;;;;;1999.90;999.90;;;;;;;;;;5053728;28;20175;-71
2022/12/20 05:06:52;;;;;;;1999.90;999.90;;;;;;;;;;5053573;28;20414;-70
2022/12/20 05:09:18;;;;;;;1999.90;999.90;;;11.20;1.00;;;;;;5053590;28;20962;-69
2022/12/20 05:11:43;;;;;;;1999.90;999.90;;;11.10;1.00;;;;;;5053486;28;20456;-70
2022/12/20 05:14:09;;;;;;;1999.90;999.90;;;11.40;1.00;;;;;;5053041;28;20609;-69
2022/12/20 05:16:36;;;;;;;1999.90;999.90;;;11.30;1.00;;;;;;5053457;28;20213;-70
2022/12/20 05:19:03;;;;;;;1999.90;999.90;;;11.00;1.00;;;;;;5053453;28;20557;-70
2022/12/20 05:26:58;;;;;;;1999.90;999.90;;;11.10;1.00;;;;;;5053500;28;20456;-70
2022/12/20 05:29:23;;;;;;;1999.90;999.90;;;11.20;1.00;;;;;;5053291;28;20493;-70
2022/12/20 05:31:49;;;;;;;1999.90;999.90;;;11.20;1.00;;;;;;5053074;28;20466;-70
2022/12/20 05:34:15;;;;;;;1999.90;999.90;;;;;;;;;;5053207;28;20171;-70
2022/12/20 05:36:41;;;;;;;1999.90;999.90;;;;;;;;;;5053054;28;20182;-71
2022/12/20 05:39:06;;;;;;;1999.90;999.90;;;11.20;1.00;;;;;;5052958;28;20406;-69
2022/12/20 05:41:32;;;;;;;1999.90;999.90;;;11.00;1.00;;;;;;5052977;28;20420;-70
2022/12/20 05:43:58;;;;;;;1999.90;999.90;;;11.00;1.00;;;;;;5053087;28;20225;-70
2022/12/20 05:46:23;;;;;;;1999.90;999.90;;;11.00;1.00;;;;;;5052915;28;20179;-70
2022/12/20 05:48:49;;;;;;;1999.90;999.90;;;;;;;;;;5052662;28;20181;-70
2022/12/20 05:51:15;;;;;;;1999.90;999.90;;;;;;;;;;5052777;28;20170;-70
2022/12/20 05:53:41;;;;;;;1999.90;999.90;;;;;;;;;;5052831;28;20454;-70
2022/12/20 05:56:07;;;;;;;1999.90;999.90;;;11.20;1.00;;;;;;5052709;28;20408;-69
2022/12/20 05:58:33;;;;;;;1999.90;999.90;;;11.40;1.00;;;;;;5052616;28;21150;-69
2022/12/20 06:01:04;;;;;;;1999.90;999.90;;;11.20;1.00;;;;;;5052716;28;20180;-70
2022/12/20 06:03:30;;;;;;;1999.90;999.90;;;11.20;1.00;;;;;;5052449;28;20190;-70
2022/12/20 06:05:56;;;;;;;1999.90;999.90;;;11.50;1.00;;;;;;5052546;28;20899;-70
2022/12/20 06:08:22;;;;;;;1999.90;999.90;;;11.40;1.00;;;;;;5052378;28;20187;-71
2022/12/20 06:10:48;;;;;;;1999.90;999.90;;;11.10;1.00;;;;;;5052665;28;20706;-70
2022/12/20 06:13:14;;;;;;;1999.90;999.90;;;11.50;1.00;;;;;;5052381;28;20472;-70
2022/12/20 06:15:40;;;;;;;1999.90;999.90;;;11.50;1.00;;;;;;5052476;28;20408;-69
2022/12/20 06:18:06;;;;;;;1999.90;999.90;;;11.20;1.00;;;;;;5052059;28;20398;-71
2022/12/20 06:20:34;;;;;;;1999.90;999.90;;;10.70;1.00;;;;;;5052563;28;20175;-70
2022/12/20 06:23:00;;;;;;;1999.90;999.90;;;11.20;1.00;;;;;;5052257;28;20445;-70
2022/12/20 06:25:26;;;;;;;1999.90;999.90;;;11.30;1.00;;;;;;5051672;28;20956;-69
2022/12/20 06:27:51;;;;;;;1999.90;999.90;;;11.20;1.00;;;;;;5051934;28;20414;-70
2022/12/20 06:30:18;;;;;;;1999.90;999.90;;;11.10;1.00;;;;;;5052261;28;20772;-69
2022/12/20 06:32:44;;;;;;;1999.90;999.90;;;10.70;1.00;;;;;;5051917;28;20207;-70
2022/12/20 06:35:10;;;;;;;1999.90;999.90;;;10.60;1.00;;;;;;5052171;28;20406;-70
2022/12/20 06:37:36;;;;;;;1999.90;999.90;;;10.90;1.00;;;;;;5051861;28;20203;-70
2022/12/20 06:40:03;;;;;;;1999.90;999.90;;;10.70;1.00;;;;;;5052009;28;20412;-70
2022/12/20 06:42:28;;;;;;;1999.90;999.90;;;11.00;1.00;;;;;;5052003;28;20484;-70
2022/12/20 06:44:54;;;;;;;1999.90;999.90;;;;;;;;;;5052017;28;20413;-71
2022/12/20 06:47:20;;;;;;;1999.90;999.90;;;10.80;1.00;;;;;;5051673;28;20220;-71
2022/12/20 06:49:46;;;;;;;1999.90;999.90;;;10.50;1.00;;;;;;5051885;28;20405;-70
2022/12/20 06:52:11;;;;;;;1999.90;999.90;;;10.50;1.00;;;;;;5051803;28;20198;-70
2022/12/20 06:54:37;;;;;;;1999.90;999.90;;;10.50;1.00;;;;;;5051843;28;20177;-70
2022/12/20 06:57:02;;;;;;;1999.90;999.90;;;10.40;1.00;;;;;;5051685;28;20540;-70
2022/12/20 06:59:28;;;;;;;1999.90;999.90;;;10.40;1.00;;;;;;5051716;28;20263;-71
2022/12/20 07:01:53;;;;;;;1999.90;999.90;;;10.40;1.00;;;;;;5051625;28;20195;-70
2022/12/20 07:04:19;;;;;;;1999.90;999.90;;;10.40;1.00;;;;;;5051792;28;20514;-70
2022/12/20 07:06:45;;;;;;;1999.90;999.90;;;;;;;;;;5051641;28;20218;-70
2022/12/20 07:09:10;;;;;;;1999.90;999.90;;;10.50;1.00;;;;;;5051558;28;20206;-70
2022/12/20 07:11:37;;;;;;;1999.90;999.90;;;10.70;5.30;;;;;;5051583;28;20424;-71
2022/12/20 07:14:02;;;;;;;1999.90;999.90;;;10.30;10.30;;;;;;5051759;28;20261;-71
2022/12/20 07:16:30;;;;;;;1999.90;999.90;;;11.00;6.60;;;;;;5051547;28;20479;-70
2022/12/20 07:18:56;;;;;;;1999.90;999.90;;;10.40;1.50;;;;;;5051494;28;20210;-70
2022/12/20 07:21:22;;;;;;;1999.90;999.90;;;10.50;1.00;;;;;;5051707;28;20417;-70
2022/12/20 07:23:47;;;;;;;1999.90;999.90;;;10.80;1.00;;;;;;5051606;28;20173;-70
2022/12/20 07:26:14;;;;;;;1999.90;999.90;;;10.30;1.80;;;;;;5051479;28;20278;-70
2022/12/20 07:28:40;;;;;;;1999.90;999.90;;;10.60;1.00;;;;;;5051379;28;20542;-70
2022/12/20 07:31:06;;;;;;;1999.90;999.90;;;;;;;;;;5051349;28;20463;-69
2022/12/20 07:33:32;;;;;;;1999.90;999.90;;;10.50;1.00;;;;;;5051288;28;20544;-69
2022/12/20 07:36:06;;;;;;;1999.90;999.90;;;10.30;1.00;;;;;;5052589;28;20467;-70
2022/12/20 07:38:33;;;;;;;1999.90;999.90;;;10.70;21.30;;;;;;5055176;28;20979;-70
2022/12/20 07:40:58;;;;;;;1999.90;999.90;;;10.60;5.30;;;;;;5055377;28;20406;-70
2022/12/20 07:43:24;;;;;;;1999.90;999.90;;;11.00;1.00;;;;;;5055290;28;20927;-70
2022/12/20 07:45:56;;;;;;;1999.90;999.90;;;11.00;1.00;;;;;;5055167;28;20171;-70
2022/12/20 07:48:23;;;;;;;1999.90;999.90;;;11.10;1.00;;;;;;5055138;28;20291;-70
2022/12/20 07:50:54;;;;;;;1999.90;999.90;;;11.40;1.00;;;;;;5055293;28;20417;-70
2022/12/20 07:53:22;;;;;;;1999.90;999.90;;;11.80;1.00;;;;;;5055093;28;20454;-70
2022/12/20 07:55:48;;;;;;;1999.90;999.90;;;11.00;1.00;;;;;;5055111;28;20840;-70
2022/12/20 07:58:16;;;;;;;1999.90;999.90;;;11.20;1.00;;;;;;5054824;28;20497;-70
2022/12/20 08:00:42;;;;;;;1999.90;999.90;;;11.40;1.00;;;;;;5055150;28;20409;-70
2022/12/20 08:03:12;;;;;;;1999.90;999.90;;;11.10;1.00;;;;;;5054948;28;20990;-71
2022/12/20 08:05:42;;;;;;;1999.90;999.90;;;11.30;1.00;;;;;;5054917;28;20419;-70
2022/12/20 08:08:08;;;;;;;1999.90;999.90;;;11.60;1.00;;;;;;5054741;28;20938;-70
2022/12/20 08:10:35;;;;;;;1999.90;999.90;;;11.70;1.00;;;;;;5054782;28;20496;-70
2022/12/20 08:13:02;;;;;;;1999.90;999.90;;;11.20;1.00;;;;;;5054702;28;20877;-70
2022/12/20 08:15:28;;;;;;;1999.90;999.90;;;11.20;1.00;;;;;;5054731;28;20402;-70
2022/12/20 08:17:54;;;;;;;1999.90;999.90;;;11.30;1.00;;;;;;5054406;28;20402;-71
2022/12/20 08:20:20;;;;;;;1999.90;999.90;;;11.30;1.00;;;;;;5054713;28;20414;-70
2022/12/20 08:22:45;;;;;;;1999.90;999.90;;;11.50;1.00;;;;;;5054611;28;20203;-70
2022/12/20 08:25:11;;;;;;;1999.90;999.90;;;12.00;1.00;;;;;;5054525;28;20407;-70
2022/12/20 08:27:37;;;;;;;1999.90;999.90;;;11.50;1.00;;;;;;5054381;28;20179;-70
2022/12/20 08:30:04;;;;;;;1999.90;999.90;;;11.80;1.00;;;;;;5054493;28;20772;-70
2022/12/20 08:32:29;;;;;;;1999.90;999.90;;;11.40;1.00;;;;;;5054036;28;20261;-70
2022/12/20 08:34:55;;;;;;;1999.90;999.90;;;;;;;;;;5054337;28;20832;-69
2022/12/20 08:37:21;;;;;;;1999.90;999.90;;;;;;;;;;5054151;28;20163;-70
2022/12/20 08:39:47;;;;;;;1999.90;999.90;;;11.80;1.00;;;;;;5054124;28;20402;-70
2022/12/20 08:42:12;;;;;;;1999.90;999.90;;;11.90;1.00;;;;;;5054174;28;20458;-71
2022/12/20 08:44:38;;;;;;;1999.90;999.90;;;12.00;1.00;;;;;;5054130;28;20229;-70
2022/12/20 08:47:03;;;;;;;1999.90;999.90;;;11.90;1.00;;;;;;5053094;28;20218;-70
2022/12/20 08:49:29;;;;;;;1999.90;999.90;;;12.30;1.00;;;;;;5053880;28;20649;-70
2022/12/20 08:51:55;;;;;;;1999.90;999.90;;;11.90;1.00;;;;;;5053907;28;20226;-70
2022/12/20 08:54:20;;;;;;;1999.90;999.90;;;11.90;1.00;;;;;;5054024;28;20164;-70
2022/12/20 08:56:46;;;;;;;1999.90;999.90;;;11.90;1.00;;;;;;5053816;28;20164;-70
2022/12/20 08:59:12;;;;;;;1999.90;999.90;;;;;;;;;;5053874;28;20247;-70
2022/12/20 09:01:38;;;;;;;1999.90;999.90;;;12.00;1.00;;;;;;5053788;28;20520;-70
2022/12/20 09:04:04;;;;;;;1999.90;999.90;;;11.90;1.00;;;;;;5053884;28;20772;-70
2022/12/20 09:06:30;;;;;;;1999.90;999.90;;;12.30;1.00;;;;;;5053745;28;20182;-70
2022/12/20 09:08:55;;;;;;;1999.90;999.90;;;12.60;1.00;;;;;;5053550;28;20759;-70
2022/12/20 09:11:25;;;;;;;1999.90;999.90;;;12.20;99.90;;;;;;5053694;28;20556;-70
2022/12/20 09:13:53;;;;;;;1999.90;999.90;;;12.20;99.90;;;;;;5054039;28;20204;-69
2022/12/20 09:16:22;;;;;;;1999.90;999.90;;;11.90;99.90;;;;;;5053519;28;20973;-69
2022/12/20 09:18:49;;;;;;;1999.90;999.90;;;12.20;99.90;;;;;;5053424;28;20402;-69
2022/12/20 09:21:14;;;;;;;1999.90;999.90;;;11.90;99.90;;;;;;5053601;28;20410;-69
2022/12/20 09:23:40;;;;;;;1999.90;999.90;;;;;;;;;;5053371;28;20500;-69
2022/12/20 09:26:10;;;;;;;1999.90;999.90;;;12.20;99.90;;;;;;5053373;28;20758;-70
2022/12/20 09:28:36;;;;;;;1999.90;999.90;;;12.10;99.90;;;;;;5053147;28;20406;-69
2022/12/20 09:31:04;;;;;;;1999.90;999.90;;;12.30;99.90;;;;;;5053215;28;20970;-69
2022/12/20 09:33:31;;;;;;;1999.90;999.90;;;12.40;99.90;;;;;;5053180;28;20235;-70
2022/12/20 09:35:58;;;;;;;1999.90;999.90;;;12.50;99.90;;;;;;5053110;28;20433;-70
2022/12/20 09:38:24;;;;;;;1999.90;999.90;;;12.50;99.90;;;;;;5053003;28;20900;-70
2022/12/20 09:40:54;;;;;;;1999.90;999.90;;;12.70;99.90;;;;;;5053099;28;20414;-70
2022/12/20 09:43:20;;;;;;;1999.90;999.90;;;12.80;99.90;;;;;;5052994;28;20430;-70
2022/12/20 09:45:49;;;;;;;1999.90;999.90;;;12.70;99.90;;;;;;5053007;28;20411;-70
2022/12/20 09:48:24;;;;;;;1999.90;999.90;;;12.80;99.90;;;;;;5052835;28;20749;-71
2022/12/20 09:51:01;;;;;;;1999.90;999.90;;;12.80;1.00;;;;;;5052873;28;20499;-70
2022/12/20 09:53:36;;;;;;;1999.90;999.90;;;12.60;99.90;;;;;;5052781;28;20474;-70
2022/12/20 09:56:15;;;;;;;1999.90;999.90;;;12.80;99.90;;;;;;5052894;28;20818;-70
2022/12/20 09:58:46;;;;;;;1999.90;999.90;;;12.80;35.10;;;;;;5052503;28;20770;-70
2022/12/20 10:01:19;;;;;;;1999.90;999.90;;;12.90;85.50;;;;;;5052685;28;20402;-70
2022/12/20 10:03:44;;;;;;;1999.90;999.90;;;13.00;99.90;;;;;;5052753;28;20410;-70
2022/12/20 10:06:15;;;;;;;1999.90;999.90;;;13.10;93.50;;;;;;5052596;28;20405;-70
2022/12/20 10:08:55;;;;;;;1999.90;999.90;;;13.10;99.90;;;;;;5052470;28;20263;-70
2022/12/20 10:11:43;;;;;;;1999.90;999.90;;;13.10;1.00;;;;;;5052563;28;20396;-69
2022/12/20 10:14:17;;;;;;;1999.90;999.90;;;13.10;99.90;;;;;;5052632;28;20409;-70
2022/12/20 10:16:50;;;;;;;1999.90;999.90;;;13.80;31.90;;;;;;5052748;28;20954;-69
2022/12/20 10:19:43;;;;;;;1999.90;999.90;;;13.60;99.90;;;;;;5052378;28;20397;-70
2022/12/20 10:22:48;;;;;;;1999.90;999.90;;;13.40;1.00;;;;;;5052163;28;20419;-69
2022/12/20 10:25:21;;;;;;;1999.90;999.90;;;13.60;99.90;;;;;;5052463;28;20487;-69
2022/12/20 10:27:49;;;;;;;1999.90;999.90;;;13.80;1.00;;;;;;5052022;28;20412;-70
2022/12/20 10:30:18;;;;;;;1999.90;999.90;;;13.60;99.90;;;;;;5052309;28;20402;-69
2022/12/20 10:32:46;;;;;;;1999.90;999.90;;;13.60;1.00;;;;;;5052066;28;20463;-69
2022/12/20 10:35:21;;;;;;;1999.90;999.90;;;13.50;9.60;;;;;;5052312;28;20410;-69
2022/12/20 10:37:56;;;;;;;1999.90;999.90;;;13.80;1.00;;;;;;5052067;28;20448;-70
2022/12/20 10:40:28;;;;;;;1999.90;999.90;;;13.30;99.90;;;;;;5052223;28;20407;-69
2022/12/20 10:42:55;;;;;;;1999.90;999.90;;;13.40;94.80;;;;;;5051996;28;20419;-69
2022/12/20 10:45:20;;;;;;;1999.90;999.90;;;13.30;17.60;;;;;;5052021;28;20404;-69
2022/12/20 10:47:49;;;;;;;1999.90;999.90;;;13.60;1.00;;;;;;5051740;28;20415;-69
2022/12/20 10:50:16;;;;;;;1999.90;999.90;;;14.50;99.90;;;;;;5052035;28;20201;-69
2022/12/20 10:52:43;;;;;;;1999.90;999.90;;;13.90;99.90;;;;;;5051836;28;20534;-69
2022/12/20 10:55:38;;;;;;;1999.90;999.90;;;14.10;99.90;;;;;;5051864;28;20400;-69
2022/12/20 10:58:12;;;;;;;1999.90;999.90;;;13.80;1.00;;;;;;5050002;28;20471;-69
2022/12/20 11:00:37;;;;;;;1999.90;999.90;;;13.80;99.90;;;;;;5051930;28;20425;-69
2022/12/20 11:03:21;;;;;;;1999.90;999.90;;;14.20;99.90;;;;;;5051747;28;20432;-70
2022/12/20 11:05:59;;;;;;;1999.90;999.90;;;15.10;99.90;;;;;;5051892;28;20258;-70
2022/12/20 11:08:26;;;;;;;1999.90;999.90;;;14.30;99.90;;;;;;5051819;28;20492;-69
2022/12/20 11:11:22;;;;;;;1999.90;999.90;;;14.10;99.90;;;;;;5054748;28;20818;-69
2022/12/20 11:13:49;;;;;;;1999.90;999.90;;;14.00;1.00;;;;;;5056895;28;20464;-69
2022/12/20 11:16:25;;;;;;;1999.90;999.90;;;14.10;1.00;;;;;;5058273;28;20409;-69
2022/12/20 11:18:58;;;;;;;1999.90;999.90;;;14.20;99.90;;;;;;5058343;28;20823;-70
2022/12/20 11:21:44;;;;;;;1999.90;999.90;;;14.00;73.50;;;;;;5058332;28;20925;-69
2022/12/20 11:24:22;;;;;;;1999.90;999.90;;;14.10;99.90;;;;;;5058355;28;20903;-69
2022/12/20 11:27:09;;;;;;;1999.90;999.90;;;14.30;99.90;;;;;;5058444;28;20848;-69
2022/12/20 11:29:59;;;;;;;1999.90;999.90;;;14.20;99.90;;;;;;5058367;28;20408;-69
2022/12/20 11:32:45;;;;;;;1999.90;999.90;;;14.00;99.90;;;;;;5058042;28;20503;-69
2022/12/20 11:35:19;;;;;;;1999.90;999.90;;;13.80;30.20;;;;;;5058235;28;20772;-69
2022/12/20 11:38:17;;;;;;;1999.90;999.90;;;14.20;15.40;;;;;;5058028;28;21035;-69
2022/12/20 11:40:57;;;;;;;1999.90;999.90;;;14.00;99.90;;;;;;5058239;28;20459;-70
2022/12/20 11:43:48;;;;;;;1999.90;999.90;;;14.20;99.90;;;;;;5057883;28;20483;-69
2022/12/20 11:46:22;;;;;;;1999.90;999.90;;;13.70;99.90;;;;;;5057797;28;20408;-69
2022/12/20 11:49:07;;;;;;;1999.90;999.90;;;13.90;13.70;;;;;;5057957;28;20413;-69
2022/12/20 11:51:46;;;;;;;1999.90;999.90;;;14.20;99.90;;;;;;5058005;28;20468;-69
2022/12/20 11:54:28;;;;;;;1999.90;999.90;;;14.20;1.00;;;;;;5058046;28;20498;-70
2022/12/20 11:57:00;;;;;;;1999.90;999.90;;;14.00;99.90;;;;;;5057802;28;20477;-70
2022/12/20 11:59:44;;;;;;;1999.90;999.90;;;13.90;99.90;;;;;;5058211;28;20966;-69
2022/12/20 12:02:17;;;;;;;1999.90;999.90;;;13.90;99.90;;;;;;5057784;28;20427;-70
2022/12/20 12:05:04;;;;;;;1999.90;999.90;;;14.20;1.00;;;;;;5057876;28;20410;-70
2022/12/20 12:07:32;;;;;;;1999.90;999.90;;;13.80;99.90;;;;;;5057652;28;20421;-70
2022/12/20 12:10:15;;;;;;;1999.90;999.90;;;14.40;57.90;;;;;;5057667;28;20417;-71
2022/12/20 12:12:46;;;;;;;1999.90;999.90;;;13.70;1.00;;;;;;5057928;28;20546;-71
2022/12/20 12:15:27;;;;;;;1999.90;999.90;;;14.10;1.00;;;;;;5057818;28;20395;-69
2022/12/20 12:18:10;;;;;;;1999.90;999.90;;;14.10;99.90;;;;;;5057565;28;20411;-70
2022/12/20 12:20:55;;;;;;;1999.90;999.90;;;14.60;1.00;;;;;;5057768;28;20411;-70
2022/12/20 12:23:28;;;;;;;1999.90;999.90;;;14.20;1.00;;;;;;5054887;28;20420;-70
2022/12/20 12:25:54;;;;;;;1999.90;999.90;;;13.70;1.00;;;;;;5054564;28;20487;-71
2022/12/20 12:28:22;;;;;;;1999.90;999.90;;;13.80;99.90;;;;;;5054413;28;20516;-71
2022/12/20 12:31:03;;;;;;;1999.90;999.90;;;14.10;99.90;;;;;;5054490;28;20187;-71
2022/12/20 12:33:36;;;;;;;1999.90;999.90;;;13.90;99.90;;;;;;5054331;28;20449;-71
2022/12/20 12:36:14;;;;;;;1999.90;999.90;;;13.90;1.00;;;;;;5054538;28;20408;-70
2022/12/20 12:38:47;;;;;;;1999.90;999.90;;;13.80;1.00;;;;;;5054242;28;20422;-70
2022/12/20 12:41:33;;;;;;;1999.90;999.90;;;13.80;1.00;;;;;;5054425;28;20405;-69